CPX18 Details

Departure: Ted Stevens Anchorage International Airport (PANC)
Arrival: Taiwan Taoyuan International Airport (RCTP) at N/A
Route: NODLE R220 NANNO ALICE Y111 MQE Y124 GTC Y12 KEC A1 AISAR A1 DRAKE DRAKE1A
Notes:


Current Weather Information
PANC 251055Z 16005KT 3SM FU OVC080 13/08 A2985 RMK AO2 T01280083
RCTP 251130Z 23008KT 9999 FEW012 BKN060 BKN100 28/27 Q1008 NOSIG RMK A2979